Time;durP1;ratioP1;P1;durP2;ratioP2;P2;SDS_P1;SDS_P2;PMS_P1;PMS_P2;Temp;Humidity;BMP_temperature;BMP_pressure;BME280_temperature;BME280_humidity;BME280_pressure;Samples;Min_cycle;Max_cycle;Signal;HPM_P1;HPM_P2
2022/02/06 00:01:52;;;;;;;3.50;1.60;;;2.00;96.30;;;;;;5071324;28;20516;-74
2022/02/06 00:04:18;;;;;;;3.77;1.50;;;2.00;96.30;;;;;;5071238;28;21100;-74
2022/02/06 00:06:44;;;;;;;4.43;1.50;;;2.00;96.30;;;;;;5071336;28;20204;-75
2022/02/06 00:09:09;;;;;;;1.67;0.90;;;2.00;96.30;;;;;;5072616;28;20171;-74
2022/02/06 00:11:35;;;;;;;4.30;1.40;;;2.00;96.30;;;;;;5071089;28;20685;-74
2022/02/06 00:14:00;;;;;;;7.20;1.77;;;2.00;96.30;;;;;;5054516;28;20225;-74
2022/02/06 00:16:27;;;;;;;4.60;2.30;;;2.00;96.30;;;;;;5072175;28;20266;-75
2022/02/06 00:18:52;;;;;;;8.27;2.00;;;2.00;96.30;;;;;;5072371;28;20220;-75
2022/02/06 00:21:19;;;;;;;2.80;1.10;;;;;;;;;;5072338;28;20433;-74
2022/02/06 00:23:48;;;;;;;3.93;1.70;;;2.00;96.30;;;;;;5054458;28;20175;-74
2022/02/06 00:26:37;;;;;;;3.03;1.50;;;2.00;96.30;;;;;;5072140;28;20448;-76
2022/02/06 00:29:25;;;;;;;3.43;1.47;;;2.00;96.30;;;;;;5072324;28;20409;-74
2022/02/06 00:39:13;;;;;;;4.87;1.60;;;2.20;96.30;;;;;;5052456;28;20171;-74
2022/02/06 00:41:39;;;;;;;2.63;1.00;;;2.20;96.30;;;;;;5050698;28;20949;-74
2022/02/06 00:44:07;;;;;;;3.10;1.17;;;2.30;96.30;;;;;;5052064;28;20254;-75
2022/02/06 00:46:36;;;;;;;3.33;1.27;;;2.20;96.30;;;;;;5051780;28;20171;-74
2022/02/06 00:49:11;;;;;;;2.20;1.60;;;2.20;96.30;;;;;;5051996;28;20410;-74
2022/02/06 00:51:46;;;;;;;2.97;1.27;;;2.30;96.30;;;;;;5051722;28;20469;-75
2022/02/06 00:54:11;;;;;;;3.87;1.40;;;2.30;96.30;;;;;;5054917;28;20408;-75
2022/02/06 00:56:39;;;;;;;5.80;1.40;;;;;;;;;;5040418;28;20410;-75
2022/02/06 00:59:05;;;;;;;2.33;0.93;;;2.20;96.30;;;;;;5058627;28;20176;-74
2022/02/06 05:21:39;;;;;;;4.00;0.90;;;3.00;96.30;;;;;;5033260;28;20465;-77
2022/02/06 05:25:14;;;;;;;4.33;1.10;;;3.00;96.30;;;;;;5014484;28;21082;-77
2022/02/06 05:27:11;;;;;;;1.30;1.07;;;3.10;96.30;;;;;;5018548;28;20509;-77
2022/02/06 05:29:50;;;;;;;2.40;0.70;;;3.20;96.30;;;;;;5015068;28;20926;-77
2022/02/06 05:32:23;;;;;;;1.57;1.00;;;3.10;96.30;;;;;;5014819;28;20430;-77
2022/02/06 05:34:49;;;;;;;2.40;0.77;;;3.20;96.30;;;;;;5010542;28;20416;-75
2022/02/06 05:37:14;;;;;;;1.80;0.90;;;3.30;96.30;;;;;;5013422;28;20984;-75
2022/02/06 05:39:40;;;;;;;2.80;1.03;;;3.30;96.30;;;;;;5031643;28;20703;-75
2022/02/06 05:42:06;;;;;;;3.47;0.97;;;3.30;96.30;;;;;;5034445;28;20196;-75
2022/02/06 05:44:31;;;;;;;2.80;0.70;;;3.30;96.30;;;;;;5035043;28;20203;-75
2022/02/06 05:46:57;;;;;;;0.80;0.63;;;3.40;96.30;;;;;;5017577;28;20179;-75
2022/02/06 05:49:22;;;;;;;4.97;0.90;;;3.40;96.30;;;;;;5035278;28;20250;-76
2022/02/06 05:51:48;;;;;;;1.47;0.90;;;3.40;96.30;;;;;;5035182;28;20311;-75
2022/02/06 05:54:14;;;;;;;1.73;0.80;;;3.50;96.30;;;;;;5017318;28;20230;-75
2022/02/06 05:56:40;;;;;;;1.40;0.80;;;3.50;96.30;;;;;;5034964;28;20563;-75
2022/02/06 05:59:05;;;;;;;2.60;1.10;;;3.60;96.30;;;;;;5017363;28;20419;-75
2022/02/06 06:01:31;;;;;;;1.50;0.93;;;3.60;96.30;;;;;;5034839;28;20265;-75
2022/02/06 06:03:57;;;;;;;2.17;0.70;;;3.50;96.30;;;;;;5035141;28;20259;-75
2022/02/06 06:06:22;;;;;;;3.23;1.00;;;3.60;96.30;;;;;;5017072;28;20184;-74
2022/02/06 06:08:48;;;;;;;1.00;0.77;;;3.60;96.30;;;;;;5017182;28;20723;-74
2022/02/06 06:11:14;;;;;;;1.03;0.60;;;3.60;96.30;;;;;;5034669;28;20214;-74
2022/02/06 06:13:39;;;;;;;1.20;0.60;;;3.60;96.30;;;;;;5034833;28;20176;-74
2022/02/06 06:16:07;;;;;;;2.63;0.93;;;3.50;96.30;;;;;;5016859;28;20658;-74
2022/02/06 06:18:33;;;;;;;1.10;0.67;;;3.60;96.30;;;;;;5034771;28;20769;-74
2022/02/06 06:20:59;;;;;;;1.97;0.70;;;3.60;96.30;;;;;;5016888;28;20467;-74
2022/02/06 06:23:24;;;;;;;1.40;0.70;;;3.60;96.30;;;;;;5034575;28;20168;-74
2022/02/06 06:25:51;;;;;;;0.90;0.70;;;3.60;96.30;;;;;;5034394;28;20186;-75
2022/02/06 06:28:17;;;;;;;1.50;0.83;;;3.60;96.30;;;;;;5034596;28;20628;-74
2022/02/06 06:30:43;;;;;;;2.47;0.70;;;3.60;96.30;;;;;;5015579;28;20469;-77
2022/02/06 06:33:09;;;;;;;2.50;0.70;;;3.60;96.30;;;;;;5017875;28;20173;-75
2022/02/06 06:35:34;;;;;;;2.63;0.70;;;3.60;96.30;;;;;;4997531;28;20412;-78
2022/02/06 06:38:01;;;;;;;2.40;0.70;;;3.50;96.30;;;;;;5015134;28;20185;-77
2022/02/06 06:40:27;;;;;;;1.60;0.60;;;3.60;96.30;;;;;;5011114;28;20283;-76
2022/02/06 06:42:53;;;;;;;2.67;0.90;;;3.60;96.30;;;;;;5035098;28;20430;-79
2022/02/06 06:45:18;;;;;;;0.87;0.60;;;3.60;96.30;;;;;;5035248;28;20415;-77
2022/02/06 06:47:56;;;;;;;1.53;0.70;;;3.60;96.30;;;;;;5034617;28;20181;-79
2022/02/06 06:50:24;;;;;;;2.57;1.20;;;3.60;96.30;;;;;;5034481;28;20199;-78
2022/02/06 06:52:50;;;;;;;3.30;0.90;;;3.60;96.30;;;;;;5033948;28;20438;-78
2022/02/06 06:55:19;;;;;;;5.13;1.17;;;3.50;96.30;;;;;;5034010;28;20411;-78
2022/02/06 06:57:53;;;;;;;3.90;0.87;;;3.50;96.30;;;;;;5016433;28;20422;-78
2022/02/06 07:00:33;;;;;;;1.33;0.73;;;3.40;96.30;;;;;;5015125;28;20422;-78
2022/02/06 07:02:59;;;;;;;1.73;0.90;;;3.40;96.30;;;;;;4997499;28;20482;-77
2022/02/06 07:05:25;;;;;;;2.10;0.90;;;;;;;;;;5005685;28;20418;-79
2022/02/06 07:07:50;;;;;;;2.03;0.90;;;3.30;96.30;;;;;;5017664;28;20176;-78
2022/02/06 07:10:16;;;;;;;2.83;1.00;;;3.20;96.30;;;;;;5002726;28;20456;-78
2022/02/06 07:12:42;;;;;;;2.60;0.80;;;3.20;96.30;;;;;;5015544;28;20695;-79
2022/02/06 07:15:08;;;;;;;5.90;1.10;;;3.20;96.30;;;;;;4997971;28;20420;-78
2022/02/06 07:17:33;;;;;;;2.23;1.23;;;3.30;96.30;;;;;;4996418;28;20195;-76
2022/02/06 07:19:59;;;;;;;2.20;1.03;;;3.20;96.30;;;;;;5013821;28;20208;-74
2022/02/06 07:22:24;;;;;;;1.10;0.83;;;3.20;96.30;;;;;;5013709;28;20208;-74
2022/02/06 07:24:53;;;;;;;1.87;1.50;;;3.30;96.30;;;;;;5013535;28;20234;-74
2022/02/06 07:27:25;;;;;;;1.40;1.00;;;3.30;96.30;;;;;;4996021;28;20314;-75
2022/02/06 07:29:51;;;;;;;4.30;1.27;;;3.30;96.30;;;;;;5013655;28;20876;-74
2022/02/06 07:32:17;;;;;;;2.20;0.93;;;3.30;96.30;;;;;;5013445;28;20431;-74
2022/02/06 07:34:43;;;;;;;2.50;1.00;;;3.30;96.30;;;;;;4995674;28;20404;-74
2022/02/06 07:37:09;;;;;;;1.77;0.80;;;3.20;96.30;;;;;;5032050;28;20419;-77
2022/02/06 07:39:35;;;;;;;3.00;0.93;;;3.20;96.30;;;;;;5023298;28;20667;-78
2022/02/06 07:42:01;;;;;;;1.83;1.10;;;3.20;96.30;;;;;;5014532;28;20468;-78
2022/02/06 07:44:26;;;;;;;1.73;1.20;;;3.20;96.30;;;;;;5014017;28;20432;-78
2022/02/06 07:47:00;;;;;;;5.10;1.90;;;3.20;96.30;;;;;;4997380;28;20236;-77
2022/02/06 07:49:26;;;;;;;3.43;2.03;;;3.20;96.30;;;;;;4996222;28;20560;-77
2022/02/06 07:51:51;;;;;;;1.90;1.23;;;3.30;96.30;;;;;;5014003;28;20471;-78
2022/02/06 07:54:17;;;;;;;2.47;0.83;;;3.30;96.30;;;;;;4996830;28;20173;-78
2022/02/06 07:56:42;;;;;;;4.50;0.90;;;3.30;96.30;;;;;;5014204;28;20680;-77
2022/02/06 07:59:08;;;;;;;1.80;1.20;;;3.40;96.30;;;;;;5014281;28;20173;-78
2022/02/06 08:01:34;;;;;;;3.37;1.03;;;3.50;96.30;;;;;;4995411;28;20286;-75
2022/02/06 08:03:59;;;;;;;3.10;0.70;;;3.50;96.30;;;;;;5012233;28;20177;-75
2022/02/06 08:06:25;;;;;;;4.70;1.10;;;;;;;;;;5012575;28;20193;-77
2022/02/06 08:08:51;;;;;;;3.40;1.50;;;3.60;96.30;;;;;;5012992;28;20176;-74
2022/02/06 08:11:16;;;;;;;1.57;0.90;;;3.70;96.30;;;;;;4995063;28;20247;-74
2022/02/06 08:13:52;;;;;;;4.50;0.80;;;3.70;96.30;;;;;;4995869;28;20223;-78
2022/02/06 08:16:17;;;;;;;3.67;1.00;;;3.80;96.30;;;;;;5013813;28;20625;-78
2022/02/06 08:18:43;;;;;;;2.07;1.00;;;3.80;96.30;;;;;;5013879;28;20444;-77
2022/02/06 08:21:11;;;;;;;2.80;0.83;;;3.80;96.30;;;;;;4995952;28;20704;-77
2022/02/06 08:23:37;;;;;;;2.07;0.83;;;;;;;;;;5007754;28;20230;-80
2022/02/06 08:26:04;;;;;;;2.57;1.33;;;3.90;96.30;;;;;;5032977;28;20409;-79
2022/02/06 08:28:30;;;;;;;1.50;0.83;;;4.00;96.30;;;;;;5030271;28;20436;-78
2022/02/06 08:30:55;;;;;;;2.90;1.00;;;4.00;96.30;;;;;;5013632;28;20464;-79
2022/02/06 08:33:21;;;;;;;1.90;0.83;;;4.00;96.30;;;;;;4995429;28;20640;-80
2022/02/06 08:35:46;;;;;;;2.33;0.90;;;4.10;96.30;;;;;;5002459;28;20176;-79
2022/02/06 08:38:12;;;;;;;10.27;1.30;;;4.10;96.30;;;;;;5015934;28;20662;-79
2022/02/06 08:40:39;;;;;;;1.93;0.93;;;4.10;96.30;;;;;;5015516;28;20200;-79
2022/02/06 08:43:05;;;;;;;3.13;1.10;;;4.10;96.30;;;;;;5016047;28;20428;-78
2022/02/06 08:45:30;;;;;;;2.70;1.00;;;4.10;96.30;;;;;;5016163;28;21243;-78
2022/02/06 08:47:57;;;;;;;1.90;1.40;;;4.10;96.30;;;;;;5015364;28;20207;-77
2022/02/06 08:50:23;;;;;;;3.40;2.37;;;4.10;96.30;;;;;;5014331;28;20289;-78
2022/02/06 08:52:48;;;;;;;1.50;1.10;;;4.10;96.30;;;;;;5032054;28;20406;-78
2022/02/06 08:55:14;;;;;;;1.30;0.80;;;4.10;96.30;;;;;;5014243;28;20956;-76
2022/02/06 08:57:58;;;;;;;2.67;0.90;;;4.10;96.30;;;;;;5032006;28;20160;-77
2022/02/06 09:00:25;;;;;;;11.57;1.50;;;4.10;96.30;;;;;;5032187;28;20575;-77
2022/02/06 09:02:53;;;;;;;4.30;1.07;;;4.10;96.30;;;;;;5032590;28;20458;-78
2022/02/06 09:05:19;;;;;;;2.73;1.40;;;4.10;96.30;;;;;;5032268;28;20433;-79
2022/02/06 09:07:45;;;;;;;2.20;0.93;;;4.10;96.30;;;;;;5015630;28;20411;-79
2022/02/06 09:10:14;;;;;;;2.60;0.90;;;4.10;96.30;;;;;;5025070;28;20287;-78
2022/02/06 09:12:51;;;;;;;1.20;0.83;;;4.10;96.30;;;;;;5032265;28;20407;-78
2022/02/06 09:15:17;;;;;;;2.23;1.00;;;4.20;96.30;;;;;;5033207;28;21040;-78
2022/02/06 09:17:44;;;;;;;3.80;0.90;;;4.30;96.30;;;;;;5018331;28;20419;-79
2022/02/06 09:20:10;;;;;;;1.77;0.93;;;4.30;96.30;;;;;;5011268;28;20474;-77
2022/02/06 09:22:37;;;;;;;1.90;0.80;;;4.30;96.30;;;;;;5033210;28;20411;-79
2022/02/06 09:25:02;;;;;;;2.50;0.90;;;4.30;96.30;;;;;;5010372;28;20601;-76
2022/02/06 09:27:28;;;;;;;2.53;0.70;;;4.50;96.30;;;;;;5021735;28;20990;-79
2022/02/06 09:29:54;;;;;;;2.13;0.93;;;;;;;;;;5023466;28;20205;-80
2022/02/06 09:37:11;;;;;;;4.30;0.80;;;;;;;;;;5035415;28;20180;-78
2022/02/06 09:39:40;;;;;;;2.60;0.73;;;4.80;96.30;;;;;;5025053;28;20423;-78
2022/02/06 09:42:08;;;;;;;1.00;0.80;;;4.90;96.30;;;;;;5015113;28;20196;-75
2022/02/06 09:44:34;;;;;;;1.80;1.20;;;5.00;96.30;;;;;;5015414;28;20942;-76
2022/02/06 09:47:00;;;;;;;1.33;0.60;;;5.10;96.30;;;;;;5021081;28;20418;-76
2022/02/06 09:49:27;;;;;;;0.90;0.70;;;5.10;96.30;;;;;;5017420;28;20429;-76
2022/02/06 09:51:53;;;;;;;4.83;1.13;;;5.20;96.30;;;;;;5006622;28;20463;-76
2022/02/06 09:54:22;;;;;;;1.40;0.90;;;5.10;96.30;;;;;;5022439;28;20425;-76
2022/02/06 09:56:51;;;;;;;1.63;1.03;;;5.10;96.30;;;;;;5024408;28;20428;-76
2022/02/06 09:59:20;;;;;;;1.13;0.60;;;5.10;96.30;;;;;;5008243;28;20457;-76
2022/02/06 10:01:57;;;;;;;1.70;0.80;;;5.10;96.30;;;;;;4997162;28;20491;-75
2022/02/06 10:04:26;;;;;;;2.60;0.83;;;5.20;96.30;;;;;;4994651;28;20908;-76
2022/02/06 10:07:07;;;;;;;1.03;0.77;;;5.10;96.30;;;;;;4978392;28;20794;-76
2022/02/06 10:09:58;;;;;;;1.47;0.80;;;5.20;96.30;;;;;;4998208;28;20468;-75
2022/02/06 10:12:26;;;;;;;1.63;1.40;;;5.30;96.30;;;;;;5018519;28;20447;-75
2022/02/06 10:14:52;;;;;;;2.47;1.40;;;5.30;96.30;;;;;;5017150;28;20978;-78
2022/02/06 10:17:18;;;;;;;2.13;1.33;;;5.30;96.30;;;;;;5012840;28;20512;-76
2022/02/06 10:19:57;;;;;;;2.17;0.80;;;5.30;96.30;;;;;;5014633;28;20165;-75
2022/02/06 10:22:27;;;;;;;4.13;1.00;;;5.40;96.30;;;;;;5014738;28;20424;-76
2022/02/06 10:25:07;;;;;;;2.00;1.30;;;5.40;96.30;;;;;;5013990;28;20778;-76
2022/02/06 10:28:33;;;;;;;1.03;0.80;;;5.30;96.30;;;;;;4996207;28;20411;-74
2022/02/06 10:30:58;;;;;;;2.57;0.80;;;5.30;96.30;;;;;;4934513;29;20486;-77
2022/02/06 10:33:51;;;;;;;1.50;0.80;;;5.20;96.30;;;;;;4934711;29;20462;-77
2022/02/06 10:36:22;;;;;;;2.70;1.80;;;5.40;96.30;;;;;;5008609;28;20438;-76
2022/02/06 10:38:48;;;;;;;1.97;0.87;;;;;;;;;;5003990;28;20427;-75
2022/02/06 10:41:18;;;;;;;0.80;0.60;;;5.30;96.30;;;;;;4999815;28;20436;-76
2022/02/06 10:43:53;;;;;;;1.00;0.60;;;5.30;96.30;;;;;;5014292;28;20444;-74
2022/02/06 10:46:18;;;;;;;1.83;0.90;;;;;;;;;;5013556;28;20474;-76
2022/02/06 10:48:53;;;;;;;1.40;0.73;;;5.40;96.30;;;;;;4996837;28;20918;-77
2022/02/06 10:51:38;;;;;;;1.10;0.83;;;5.50;96.30;;;;;;4996771;28;20463;-79
2022/02/06 10:54:16;;;;;;;1.00;0.77;;;5.50;96.30;;;;;;5010674;28;20403;-76
2022/02/06 10:57:05;;;;;;;1.10;0.60;;;5.50;96.30;;;;;;5033746;28;20482;-76
2022/02/06 10:59:38;;;;;;;2.20;1.10;;;5.60;96.30;;;;;;5016243;28;20404;-76
2022/02/06 11:02:17;;;;;;;1.40;0.70;;;5.60;96.30;;;;;;5000227;28;20474;-76
2022/02/06 11:04:55;;;;;;;1.40;0.70;;;5.70;96.30;;;;;;4995846;28;20946;-76
2022/02/06 11:07:20;;;;;;;1.30;0.63;;;5.60;96.30;;;;;;5013844;28;20946;-76
2022/02/06 11:09:46;;;;;;;2.40;0.90;;;5.60;96.30;;;;;;5013552;28;20439;-76
2022/02/06 11:12:22;;;;;;;1.00;0.80;;;5.60;96.30;;;;;;5013917;28;20185;-76
2022/02/06 11:14:59;;;;;;;1.33;0.63;;;5.40;96.30;;;;;;5014577;28;20403;-78
2022/02/06 11:17:27;;;;;;;1.33;0.80;;;5.40;96.30;;;;;;4996791;28;20895;-77
2022/02/06 11:20:02;;;;;;;1.10;0.60;;;5.50;96.30;;;;;;5019043;28;20414;-77
2022/02/06 12:13:22;;;;;;;1.10;0.77;;;5.20;96.30;;;;;;5889439;23;20445;-74
2022/02/06 12:15:53;;;;;;;0.90;0.70;;;5.20;96.30;;;;;;5052266;28;20441;-74
2022/02/06 12:18:25;;;;;;;1.33;0.70;;;5.20;96.30;;;;;;5052495;28;20422;-74
2022/02/06 12:20:54;;;;;;;0.90;0.70;;;5.20;96.30;;;;;;5039934;28;20441;-74
2022/02/06 12:23:44;;;;;;;1.00;0.67;;;5.10;96.30;;;;;;5072511;28;20405;-74
2022/02/06 12:28:58;;;;;;;1.23;0.60;;;5.10;96.30;;;;;;5065512;28;20405;-74
2022/02/06 12:31:32;;;;;;;2.60;1.20;;;5.00;96.30;;;;;;5054275;28;20500;-75
2022/02/06 12:37:08;;;;;;;1.00;0.60;;;4.90;96.30;;;;;;5072029;28;20421;-75
2022/02/06 12:39:35;;;;;;;1.10;0.80;;;4.90;96.30;;;;;;5072216;28;20429;-74
2022/02/06 12:42:04;;;;;;;0.90;0.50;;;4.80;96.30;;;;;;5072225;28;20428;-75
2022/02/06 12:44:30;;;;;;;0.80;0.50;;;4.90;96.30;;;;;;5071936;28;20440;-75
2022/02/06 12:46:59;;;;;;;1.17;0.67;;;4.90;96.30;;;;;;5054142;28;20504;-75
2022/02/06 12:49:34;;;;;;;1.70;0.53;;;5.00;96.30;;;;;;5053637;28;20413;-76
2022/02/06 12:52:01;;;;;;;0.90;0.53;;;5.00;96.30;;;;;;5072049;28;20456;-74
2022/02/06 12:54:27;;;;;;;0.90;0.50;;;5.00;96.30;;;;;;5071846;28;20922;-74
2022/02/06 12:56:58;;;;;;;8.27;4.20;;;5.00;96.30;;;;;;5072065;28;20409;-77
2022/02/06 12:59:26;;;;;;;1.37;0.50;;;5.10;96.30;;;;;;5071934;28;20409;-75
2022/02/06 13:01:55;;;;;;;0.80;0.50;;;5.20;96.30;;;;;;5071931;28;20433;-75
2022/02/06 13:04:27;;;;;;;1.07;0.50;;;5.30;96.30;;;;;;5053839;28;20455;-75
2022/02/06 13:06:58;;;;;;;0.80;0.50;;;5.40;96.30;;;;;;5071978;28;20405;-77
2022/02/06 13:09:29;;;;;;;0.93;0.70;;;5.40;96.30;;;;;;5071999;28;20402;-74
2022/02/06 13:12:22;;;;;;;1.37;0.80;;;5.50;96.30;;;;;;5071733;28;20801;-76
2022/02/06 13:22:36;;;;;;;0.90;0.50;;;5.60;96.30;;;;;;5072017;28;20433;-75
2022/02/06 13:25:24;;;;;;;0.90;0.50;;;5.60;96.30;;;;;;5053654;28;20185;-75
2022/02/06 13:28:43;;;;;;;0.80;0.50;;;5.70;96.30;;;;;;5064219;28;20393;-74
2022/02/06 13:31:17;;;;;;;1.10;0.70;;;5.70;96.30;;;;;;5057997;28;20477;-76
2022/02/06 13:33:59;;;;;;;2.10;1.30;;;5.70;96.30;;;;;;5071633;28;20404;-75
2022/02/06 13:36:40;;;;;;;0.90;0.50;;;5.70;96.30;;;;;;5058725;28;20430;-76
2022/02/06 13:39:12;;;;;;;0.90;0.60;;;5.70;96.30;;;;;;5051675;28;20904;-74
2022/02/06 13:41:39;;;;;;;1.37;0.87;;;5.70;96.30;;;;;;5033619;28;20469;-76
2022/02/06 13:44:18;;;;;;;1.50;0.63;;;5.80;96.30;;;;;;5051544;28;20504;-76
2022/02/06 13:46:45;;;;;;;2.60;0.70;;;5.70;96.30;;;;;;5051748;28;20402;-74
2022/02/06 13:49:11;;;;;;;1.60;1.10;;;5.70;96.30;;;;;;5051527;28;20414;-74
2022/02/06 13:51:48;;;;;;;1.10;0.70;;;5.70;96.30;;;;;;5051327;28;20549;-74
2022/02/06 13:54:15;;;;;;;1.83;0.70;;;5.60;96.30;;;;;;5051483;28;20408;-74
2022/02/06 13:56:41;;;;;;;0.80;0.60;;;5.70;96.30;;;;;;5051260;28;20406;-75
2022/02/06 13:59:14;;;;;;;1.53;0.80;;;5.70;96.30;;;;;;5051308;28;20452;-76
2022/02/06 14:01:47;;;;;;;1.10;0.60;;;5.60;96.30;;;;;;5051840;28;20437;-74
2022/02/06 14:04:23;;;;;;;1.47;0.50;;;5.60;96.30;;;;;;5055030;28;20796;-74
2022/02/06 14:07:00;;;;;;;1.20;0.63;;;5.60;96.30;;;;;;5055081;28;20443;-75
2022/02/06 14:09:31;;;;;;;2.83;0.90;;;5.60;96.30;;;;;;5055282;28;20737;-74
2022/02/06 14:12:04;;;;;;;0.80;0.50;;;5.60;96.30;;;;;;5036739;28;20465;-76
2022/02/06 14:14:32;;;;;;;6.10;3.47;;;5.60;96.30;;;;;;5054500;28;20434;-74
2022/02/06 14:16:58;;;;;;;3.47;1.17;;;5.60;96.30;;;;;;5054724;28;20418;-76
2022/02/06 14:19:42;;;;;;;2.30;0.77;;;5.70;96.30;;;;;;5054718;28;20493;-76
2022/02/06 14:22:08;;;;;;;4.10;1.70;;;5.70;96.30;;;;;;5036882;28;20438;-75
2022/02/06 14:25:00;;;;;;;2.23;0.93;;;5.70;96.30;;;;;;5054355;28;20414;-74
2022/02/06 14:27:46;;;;;;;0.90;0.60;;;5.60;96.30;;;;;;5054463;28;20391;-76
2022/02/06 14:30:24;;;;;;;0.80;0.43;;;5.60;96.30;;;;;;5054193;28;20805;-75
2022/02/06 14:32:59;;;;;;;0.80;0.40;;;5.60;96.30;;;;;;5054501;28;20397;-75
2022/02/06 14:35:51;;;;;;;1.00;0.70;;;5.70;96.30;;;;;;5058564;28;20805;-78
2022/02/06 14:38:39;;;;;;;0.77;0.40;;;5.70;96.30;;;;;;5074394;28;20460;-74
2022/02/06 14:43:56;;;;;;;1.40;0.67;;;5.60;96.30;;;;;;5074636;28;20489;-78
2022/02/06 14:46:22;;;;;;;0.73;0.40;;;5.60;96.30;;;;;;5056243;28;20922;-79
2022/02/06 14:48:47;;;;;;;0.80;0.50;;;5.50;96.30;;;;;;5074274;28;20492;-75
2022/02/06 14:51:15;;;;;;;0.90;0.50;;;5.50;96.30;;;;;;5055977;28;20472;-76
2022/02/06 14:53:41;;;;;;;0.80;0.50;;;5.40;96.30;;;;;;5074150;28;20171;-76
2022/02/06 14:56:11;;;;;;;1.80;0.50;;;5.40;96.30;;;;;;5055741;28;20474;-75
2022/02/06 14:58:37;;;;;;;0.80;0.50;;;5.30;96.30;;;;;;5074329;28;20643;-76
2022/02/06 15:01:03;;;;;;;0.80;0.60;;;5.20;96.30;;;;;;5056038;28;20436;-74
2022/02/06 15:03:29;;;;;;;1.97;0.77;;;5.20;96.30;;;;;;5074023;28;20175;-74
2022/02/06 15:05:54;;;;;;;0.80;0.40;;;5.10;96.30;;;;;;5055722;28;20416;-75
2022/02/06 15:08:20;;;;;;;0.80;0.50;;;4.90;96.30;;;;;;5055964;28;20182;-75
2022/02/06 15:10:47;;;;;;;1.50;1.00;;;4.90;96.30;;;;;;5054671;28;20213;-77
2022/02/06 15:13:13;;;;;;;0.70;0.40;;;4.80;96.30;;;;;;5035468;28;20540;-76
2022/02/06 15:15:56;;;;;;;0.80;0.60;;;4.70;96.30;;;;;;5035726;28;20410;-77
2022/02/06 15:18:35;;;;;;;2.50;0.50;;;4.60;96.30;;;;;;5035900;28;20417;-77
2022/02/06 15:21:01;;;;;;;14.77;8.30;;;4.40;96.30;;;;;;5053628;28;20487;-77
2022/02/06 15:23:27;;;;;;;1.00;0.50;;;4.30;96.30;;;;;;5053524;28;20977;-77
2022/02/06 15:25:54;;;;;;;0.90;0.53;;;4.20;96.30;;;;;;5053281;28;20505;-77
2022/02/06 15:28:19;;;;;;;0.80;0.40;;;4.30;96.30;;;;;;5053684;28;20176;-77
2022/02/06 15:30:45;;;;;;;0.90;0.60;;;4.30;96.30;;;;;;5035622;28;20461;-74
2022/02/06 15:33:11;;;;;;;1.57;0.40;;;4.20;96.30;;;;;;5053430;28;20226;-76
2022/02/06 15:35:37;;;;;;;0.80;0.60;;;4.20;96.30;;;;;;5059070;28;20178;-76
2022/02/06 15:38:04;;;;;;;1.43;0.90;;;4.10;96.30;;;;;;5073308;28;20170;-74
2022/02/06 15:40:30;;;;;;;0.80;0.43;;;4.20;96.30;;;;;;5073038;28;20409;-73
2022/02/06 15:42:56;;;;;;;1.40;0.63;;;4.20;96.30;;;;;;5073173;28;20413;-76
2022/02/06 15:45:22;;;;;;;0.80;0.40;;;4.20;96.30;;;;;;5072857;28;20432;-73
2022/02/06 15:47:47;;;;;;;0.80;0.50;;;4.10;96.30;;;;;;5055176;28;20171;-73
2022/02/06 15:50:13;;;;;;;0.80;0.50;;;;;;;;;;5072975;28;20478;-75
2022/02/06 15:52:39;;;;;;;1.80;0.60;;;4.10;96.30;;;;;;5055189;28;20543;-74
2022/02/06 15:55:05;;;;;;;0.87;0.60;;;4.10;96.30;;;;;;5072733;28;20657;-75
2022/02/06 15:57:31;;;;;;;1.20;1.03;;;4.00;96.30;;;;;;5054857;28;20170;-77
2022/02/06 15:59:57;;;;;;;3.10;0.60;;;4.00;96.30;;;;;;5072759;28;20405;-74
2022/02/06 16:02:22;;;;;;;0.90;0.50;;;4.00;96.30;;;;;;5072694;28;20191;-72
2022/02/06 16:04:48;;;;;;;1.00;0.80;;;4.00;96.30;;;;;;5072424;28;20451;-73
2022/02/06 16:07:13;;;;;;;1.00;0.50;;;3.90;96.30;;;;;;5072700;28;20171;-73
2022/02/06 16:09:41;;;;;;;1.00;0.70;;;3.90;96.30;;;;;;5072513;28;20181;-75
2022/02/06 16:12:08;;;;;;;0.90;0.63;;;3.90;96.30;;;;;;5054698;28;20207;-73
2022/02/06 16:14:35;;;;;;;0.90;0.60;;;4.00;96.30;;;;;;5071989;28;20611;-73
2022/02/06 16:17:00;;;;;;;0.80;0.43;;;4.10;96.30;;;;;;5054431;28;20420;-75
2022/02/06 16:19:26;;;;;;;0.80;0.50;;;4.10;96.30;;;;;;5054581;28;20413;-75
2022/02/06 16:21:51;;;;;;;1.60;1.00;;;4.20;96.30;;;;;;5049214;28;20678;-76
2022/02/06 16:24:19;;;;;;;0.80;0.43;;;4.30;96.30;;;;;;5052780;28;20202;-77
2022/02/06 16:26:45;;;;;;;0.80;0.40;;;4.40;96.30;;;;;;5044472;28;20186;-78
2022/02/06 16:29:11;;;;;;;1.20;0.60;;;4.40;96.30;;;;;;5053807;28;20836;-78
2022/02/06 16:31:37;;;;;;;0.80;0.50;;;4.60;96.30;;;;;;5059933;28;20461;-78
2022/02/06 16:34:03;;;;;;;0.70;0.40;;;;;;;;;;5038537;28;20180;-77
2022/02/06 16:36:28;;;;;;;0.80;0.50;;;4.70;96.30;;;;;;5058590;28;20197;-77
2022/02/06 16:38:54;;;;;;;0.90;0.70;;;4.90;96.30;;;;;;5035955;28;20555;-76
2022/02/06 16:41:20;;;;;;;1.43;1.10;;;4.80;96.30;;;;;;5034190;28;20810;-76
2022/02/06 16:43:46;;;;;;;1.70;1.33;;;4.90;96.30;;;;;;5052131;28;20257;-75
2022/02/06 16:46:12;;;;;;;0.80;0.60;;;4.80;96.30;;;;;;5051884;28;20170;-75
2022/02/06 16:48:38;;;;;;;11.17;0.60;;;4.70;96.30;;;;;;5067555;28;20794;-75
2022/02/06 16:51:04;;;;;;;0.77;0.40;;;;;;;;;;5068929;28;20456;-76
2022/02/06 16:53:30;;;;;;;0.80;0.40;;;4.60;96.30;;;;;;5071789;28;20285;-75
2022/02/06 16:55:56;;;;;;;0.80;0.50;;;4.60;96.30;;;;;;5071514;28;20401;-76
2022/02/06 16:58:22;;;;;;;0.97;0.47;;;4.40;96.30;;;;;;5071580;28;20210;-75
2022/02/06 17:00:49;;;;;;;0.90;0.60;;;4.50;96.30;;;;;;5069207;28;20441;-76
2022/02/06 17:03:15;;;;;;;0.73;0.40;;;;;;;;;;5033789;28;20417;-76
2022/02/06 17:05:41;;;;;;;1.00;0.40;;;;;;;;;;5062036;28;20413;-75
2022/02/06 17:08:07;;;;;;;0.90;0.50;;;4.40;96.30;;;;;;5038025;28;20938;-75
2022/02/06 17:10:33;;;;;;;0.90;0.50;;;4.50;96.30;;;;;;5067443;28;20560;-75
2022/02/06 17:13:00;;;;;;;0.80;0.50;;;4.50;96.30;;;;;;5045914;28;20187;-76
2022/02/06 17:15:26;;;;;;;0.90;0.60;;;4.60;96.30;;;;;;5056411;28;20822;-77
2022/02/06 17:17:53;;;;;;;0.70;0.40;;;4.80;96.30;;;;;;5064675;28;20532;-77
2022/02/06 17:20:23;;;;;;;0.90;0.50;;;4.90;96.30;;;;;;5049936;28;20795;-77
2022/02/06 17:22:49;;;;;;;0.80;0.40;;;4.80;96.30;;;;;;5051823;28;20414;-76
2022/02/06 17:25:14;;;;;;;0.80;0.50;;;4.70;96.30;;;;;;5061624;28;20421;-78
2022/02/06 17:27:40;;;;;;;0.70;0.40;;;4.80;96.30;;;;;;5045221;28;20413;-79
2022/02/06 17:30:06;;;;;;;0.80;0.50;;;4.80;96.30;;;;;;5037396;28;20179;-78
2022/02/06 17:32:32;;;;;;;0.80;0.50;;;4.80;96.30;;;;;;5051909;28;20570;-78
2022/02/06 17:34:58;;;;;;;0.80;0.50;;;;;;;;;;5075918;28;20424;-77
2022/02/06 17:37:23;;;;;;;0.90;0.53;;;4.70;96.30;;;;;;5056406;28;20275;-76
2022/02/06 17:39:52;;;;;;;0.80;0.40;;;4.60;96.30;;;;;;5057377;28;20412;-75
2022/02/06 17:42:18;;;;;;;0.80;0.50;;;4.50;96.30;;;;;;5064241;28;20277;-75
2022/02/06 17:44:44;;;;;;;0.80;0.50;;;4.40;96.30;;;;;;5055139;28;20424;-78
2022/02/06 17:47:10;;;;;;;0.73;0.43;;;4.40;96.30;;;;;;5054277;28;20436;-76
2022/02/06 17:49:35;;;;;;;0.80;0.40;;;4.40;96.30;;;;;;5057252;28;20172;-76
2022/02/06 17:52:01;;;;;;;0.80;0.50;;;4.40;96.30;;;;;;5056887;28;20238;-76
2022/02/06 17:54:27;;;;;;;0.80;0.40;;;4.40;96.30;;;;;;5044374;28;20216;-76
2022/02/06 17:56:52;;;;;;;0.80;0.43;;;4.40;96.30;;;;;;5074772;28;20785;-77
2022/02/06 17:59:20;;;;;;;1.00;0.50;;;4.30;96.30;;;;;;5074625;28;20179;-76
2022/02/06 18:01:45;;;;;;;1.30;0.50;;;4.30;96.30;;;;;;5048697;28;20646;-76
2022/02/06 18:04:11;;;;;;;0.80;0.50;;;4.30;96.30;;;;;;5036927;28;21012;-77
2022/02/06 18:06:37;;;;;;;0.80;0.50;;;4.20;96.30;;;;;;5054690;28;20229;-75
2022/02/06 18:09:04;;;;;;;1.43;0.50;;;;;;;;;;5054977;28;20178;-78
2022/02/06 18:11:29;;;;;;;0.80;0.50;;;4.20;96.30;;;;;;5036705;28;20988;-77
2022/02/06 18:13:55;;;;;;;1.10;0.60;;;;;;;;;;5059791;28;20451;-77
2022/02/06 18:16:21;;;;;;;0.70;0.50;;;4.20;96.30;;;;;;5069206;28;20388;-75
2022/02/06 18:18:46;;;;;;;0.90;0.60;;;4.20;96.30;;;;;;5070912;28;20179;-76
2022/02/06 18:21:14;;;;;;;1.00;0.70;;;4.20;96.30;;;;;;5065000;28;20273;-76
2022/02/06 18:23:41;;;;;;;1.10;0.70;;;4.10;96.30;;;;;;5073236;28;20289;-78
2022/02/06 18:26:06;;;;;;;0.80;0.50;;;4.20;96.30;;;;;;5074184;28;20425;-79
2022/02/06 18:28:32;;;;;;;0.80;0.50;;;4.10;96.30;;;;;;5074442;28;20413;-78
2022/02/06 18:30:58;;;;;;;0.90;0.60;;;4.10;96.30;;;;;;5073184;28;20677;-77
2022/02/06 18:33:25;;;;;;;0.80;0.50;;;4.10;96.30;;;;;;5054267;28;20171;-77
2022/02/06 18:35:52;;;;;;;1.53;1.07;;;4.10;96.30;;;;;;5061737;28;20417;-77
2022/02/06 18:38:17;;;;;;;0.90;0.50;;;4.10;96.30;;;;;;5042527;28;20426;-78
2022/02/06 18:40:44;;;;;;;0.90;0.50;;;4.10;96.30;;;;;;5054331;28;20990;-78
2022/02/06 18:43:10;;;;;;;0.93;0.60;;;4.10;96.30;;;;;;5036642;28;20175;-78
2022/02/06 18:45:35;;;;;;;0.80;0.53;;;4.10;96.30;;;;;;5054092;28;20410;-80
2022/02/06 18:48:02;;;;;;;0.80;0.50;;;4.00;96.30;;;;;;5040509;28;20257;-78
2022/02/06 18:50:28;;;;;;;1.00;0.50;;;;;;;;;;5073655;28;20597;-81
2022/02/06 18:52:56;;;;;;;0.80;0.50;;;4.00;96.30;;;;;;5050007;28;20865;-80